Time;durP1;ratioP1;P1;durP2;ratioP2;P2;SDS_P1;SDS_P2;PMS_P1;PMS_P2;Temp;Humidity;BMP_temperature;BMP_pressure;BME280_temperature;BME280_humidity;BME280_pressure;Samples;Min_cycle;Max_cycle;Signal;HPM_P1;HPM_P2
2022/03/03 00:01:41;;;;;;;7.53;5.65;;;9.10;1.00;;;;;;5033771;28;20084;-71
2022/03/03 00:04:07;;;;;;;7.00;5.32;;;9.10;1.00;;;;;;5034530;28;20116;-71
2022/03/03 00:06:34;;;;;;;7.65;6.15;;;9.10;1.00;;;;;;5035106;28;20136;-71
2022/03/03 00:09:00;;;;;;;8.82;6.47;;;9.00;1.00;;;;;;5034945;28;20083;-71
2022/03/03 00:11:26;;;;;;;8.63;6.18;;;9.00;1.50;;;;;;5034514;28;20045;-70
2022/03/03 00:13:52;;;;;;;9.98;6.93;;;8.90;3.60;;;;;;5034353;28;20487;-71
2022/03/03 00:16:18;;;;;;;8.13;5.68;;;9.00;3.90;;;;;;5034532;28;20041;-70
2022/03/03 00:18:44;;;;;;;8.15;6.97;;;9.00;1.00;;;;;;5019632;28;20108;-72
2022/03/03 00:21:10;;;;;;;11.98;7.45;;;9.10;1.00;;;;;;5015808;28;20080;-70
2022/03/03 00:23:36;;;;;;;8.35;6.93;;;9.10;1.00;;;;;;5033321;28;20045;-71
2022/03/03 00:26:02;;;;;;;8.93;7.03;;;9.10;4.20;;;;;;5031416;28;20060;-70
2022/03/03 00:28:28;;;;;;;9.60;7.20;;;9.10;5.40;;;;;;5024038;28;20037;-70
2022/03/03 00:30:54;;;;;;;8.68;7.35;;;9.00;2.60;;;;;;5025057;28;20077;-70
2022/03/03 00:33:20;;;;;;;8.27;6.20;;;9.10;2.50;;;;;;5033499;28;20449;-71
2022/03/03 00:35:46;;;;;;;7.55;6.60;;;9.10;1.00;;;;;;5022529;28;20117;-70
2022/03/03 00:38:12;;;;;;;7.47;6.13;;;9.10;1.30;;;;;;5034053;28;20076;-70
2022/03/03 00:40:38;;;;;;;8.95;6.57;;;9.10;2.10;;;;;;5034303;28;20473;-70
2022/03/03 00:43:06;;;;;;;9.05;6.07;;;9.10;2.30;;;;;;5030047;28;20567;-73
2022/03/03 00:45:33;;;;;;;7.72;6.32;;;9.10;1.00;;;;;;5014309;28;20042;-72
2022/03/03 00:47:59;;;;;;;7.30;5.53;;;9.10;1.00;;;;;;5014815;28;20133;-71
2022/03/03 00:50:25;;;;;;;7.90;5.88;;;9.10;1.00;;;;;;5010235;28;20060;-72
2022/03/03 00:52:51;;;;;;;8.20;5.50;;;9.10;1.00;;;;;;5025906;28;20121;-72
2022/03/03 00:55:17;;;;;;;7.22;5.43;;;9.10;1.00;;;;;;5021431;28;20034;-71
2022/03/03 00:57:42;;;;;;;8.05;5.70;;;9.10;1.00;;;;;;5016938;28;20096;-71
2022/03/03 01:00:09;;;;;;;6.18;5.43;;;9.10;1.00;;;;;;5034055;28;20045;-72
2022/03/03 01:02:35;;;;;;;6.00;5.30;;;9.10;1.00;;;;;;5024755;28;20050;-71
2022/03/03 01:05:02;;;;;;;6.60;5.70;;;9.10;1.00;;;;;;5014476;28;20044;-71
2022/03/03 01:07:28;;;;;;;7.88;5.80;;;9.00;1.00;;;;;;5013817;28;20049;-71
2022/03/03 01:09:57;;;;;;;8.98;6.13;;;9.00;1.00;;;;;;5013955;28;20034;-71
2022/03/03 01:12:23;;;;;;;8.30;6.00;;;7.70;1.00;;;;;;5014298;28;20594;-71
2022/03/03 01:14:49;;;;;;;7.82;5.80;;;8.90;4.90;;;;;;5015563;28;20141;-72
2022/03/03 01:17:15;;;;;;;7.07;5.43;;;8.90;1.20;;;;;;5016869;28;20053;-72
2022/03/03 01:19:42;;;;;;;10.07;7.15;;;8.80;1.10;;;;;;5016764;28;20041;-71
2022/03/03 01:22:08;;;;;;;8.88;6.10;;;8.70;3.20;;;;;;5017256;28;20045;-72
2022/03/03 01:24:34;;;;;;;7.75;5.38;;;8.80;4.50;;;;;;5017289;28;20115;-72
2022/03/03 01:27:01;;;;;;;8.85;6.25;;;8.80;1.00;;;;;;5017538;28;20041;-72
2022/03/03 01:29:27;;;;;;;7.13;5.25;;;8.70;10.90;;;;;;5017312;28;20046;-72
2022/03/03 01:31:53;;;;;;;8.73;5.75;;;8.80;1.00;;;;;;5017419;28;20042;-72
2022/03/03 01:34:18;;;;;;;7.65;6.32;;;8.80;8.70;;;;;;5017343;28;20038;-71
2022/03/03 01:36:44;;;;;;;7.28;5.40;;;8.70;11.20;;;;;;5017329;28;20439;-71
2022/03/03 01:39:11;;;;;;;6.90;5.15;;;8.30;5.20;;;;;;5017057;28;20040;-72
2022/03/03 01:41:38;;;;;;;5.90;5.30;;;8.70;8.40;;;;;;5017278;28;20107;-72
2022/03/03 01:44:05;;;;;;;5.47;4.80;;;8.50;23.20;;;;;;5017156;28;20117;-72
2022/03/03 01:46:31;;;;;;;10.23;8.07;;;8.40;20.20;;;;;;5016878;28;20042;-71
2022/03/03 01:48:57;;;;;;;16.13;11.82;;;8.30;31.70;;;;;;5017158;28;20069;-71
2022/03/03 01:51:22;;;;;;;9.43;6.95;;;8.20;51.40;;;;;;5017212;28;20046;-71
2022/03/03 01:53:48;;;;;;;8.38;5.88;;;8.10;87.80;;;;;;5016760;28;20049;-71
2022/03/03 01:56:15;;;;;;;6.85;5.10;;;8.00;92.00;;;;;;5017012;28;20109;-71
2022/03/03 01:58:41;;;;;;;7.55;6.50;;;8.00;84.30;;;;;;5016668;28;20038;-71
2022/03/03 02:01:07;;;;;;;8.73;5.55;;;7.90;90.50;;;;;;5016767;28;20061;-71
2022/03/03 02:03:33;;;;;;;9.40;5.45;;;7.90;93.80;;;;;;5016765;28;20040;-71
2022/03/03 02:05:59;;;;;;;8.13;6.20;;;7.90;93.90;;;;;;5016301;28;20177;-71
2022/03/03 02:08:25;;;;;;;7.35;5.60;;;7.90;93.70;;;;;;5016711;28;20388;-71
2022/03/03 02:10:52;;;;;;;7.65;5.90;;;7.90;89.40;;;;;;5017074;28;20053;-71
2022/03/03 02:13:18;;;;;;;7.63;5.40;;;7.90;99.90;;;;;;5016332;28;20045;-71
2022/03/03 02:15:54;;;;;;;8.15;6.53;;;7.80;96.30;;;;;;5016542;28;20042;-71
2022/03/03 02:18:20;;;;;;;8.13;6.22;;;7.70;99.90;;;;;;5016288;28;20034;-71
2022/03/03 02:20:47;;;;;;;7.78;6.15;;;7.90;99.90;;;;;;5016561;28;20045;-71
2022/03/03 02:23:14;;;;;;;6.88;5.38;;;7.90;99.90;;;;;;5015975;28;20057;-71
2022/03/03 02:25:40;;;;;;;7.35;6.40;;;7.90;99.90;;;;;;5016687;28;20053;-71
2022/03/03 02:28:06;;;;;;;7.90;6.82;;;7.90;99.90;;;;;;5016119;28;20037;-71
2022/03/03 02:30:32;;;;;;;9.10;7.57;;;8.20;86.10;;;;;;5016680;28;20121;-71
2022/03/03 02:32:58;;;;;;;10.38;8.48;;;8.30;68.40;;;;;;5016159;28;20034;-71
2022/03/03 02:35:24;;;;;;;10.90;7.38;;;8.30;55.30;;;;;;5016777;28;20038;-71
2022/03/03 02:37:50;;;;;;;8.40;6.45;;;8.20;63.20;;;;;;5016110;28;20073;-71
2022/03/03 02:40:20;;;;;;;9.43;7.45;;;8.10;83.60;;;;;;5016109;28;20523;-71
2022/03/03 02:42:50;;;;;;;8.20;6.47;;;8.10;83.00;;;;;;5015875;28;20049;-71
2022/03/03 02:45:17;;;;;;;8.05;6.32;;;8.10;72.80;;;;;;5015818;28;20048;-71
2022/03/03 02:47:45;;;;;;;7.88;6.60;;;8.10;64.90;;;;;;5015748;28;20064;-71
2022/03/03 02:50:12;;;;;;;8.30;6.78;;;8.20;67.40;;;;;;5016508;28;20049;-71
2022/03/03 02:52:38;;;;;;;8.25;6.22;;;8.20;67.30;;;;;;5015946;28;20034;-71
2022/03/03 02:55:05;;;;;;;9.27;6.13;;;8.10;66.30;;;;;;5016415;28;20343;-71
2022/03/03 03:00:15;;;;;;;9.88;6.72;;;8.00;99.00;;;;;;5015355;28;20046;-71
2022/03/03 03:02:42;;;;;;;10.48;6.43;;;8.00;99.90;;;;;;5016193;28;20053;-71
2022/03/03 03:05:08;;;;;;;10.60;6.72;;;8.00;98.30;;;;;;5015909;28;20041;-71
2022/03/03 03:07:34;;;;;;;7.50;5.57;;;7.80;99.90;;;;;;5015943;28;20615;-71
2022/03/03 03:10:00;;;;;;;7.85;6.13;;;7.70;99.90;;;;;;5015987;28;20042;-71
2022/03/03 03:12:26;;;;;;;10.10;6.85;;;7.70;99.90;;;;;;5015894;28;20034;-71
2022/03/03 03:14:52;;;;;;;9.35;6.53;;;7.60;99.90;;;;;;5015312;28;20030;-71
2022/03/03 03:17:18;;;;;;;11.35;7.05;;;7.50;99.90;;;;;;5015825;28;20103;-71
2022/03/03 03:19:44;;;;;;;11.07;7.60;;;7.10;99.90;;;;;;5014624;28;20041;-71
2022/03/03 03:22:10;;;;;;;10.80;8.13;;;7.60;99.90;;;;;;5015414;28;20092;-71
2022/03/03 03:24:35;;;;;;;12.52;7.65;;;7.50;99.90;;;;;;5015400;28;20037;-71
2022/03/03 03:27:01;;;;;;;10.55;7.57;;;7.50;99.90;;;;;;5015649;28;20045;-71
2022/03/03 03:29:27;;;;;;;11.20;7.30;;;7.50;99.90;;;;;;5016069;28;20107;-71
2022/03/03 03:31:53;;;;;;;10.55;7.47;;;7.30;99.90;;;;;;5015698;28;20049;-71
2022/03/03 03:34:19;;;;;;;9.98;7.43;;;7.30;99.90;;;;;;5015465;28;20377;-71
2022/03/03 03:36:44;;;;;;;11.57;7.55;;;7.50;99.90;;;;;;5015105;28;20049;-71
2022/03/03 03:39:10;;;;;;;9.32;6.88;;;7.60;99.90;;;;;;5015514;28;20046;-71
2022/03/03 03:41:36;;;;;;;11.45;7.47;;;7.60;99.90;;;;;;5015550;28;20054;-71
2022/03/03 03:44:02;;;;;;;8.25;7.28;;;7.60;99.90;;;;;;5015201;28;20040;-72
2022/03/03 03:46:28;;;;;;;9.63;6.88;;;7.70;99.90;;;;;;5015392;28;20048;-71
2022/03/03 03:48:54;;;;;;;9.57;7.50;;;7.70;99.90;;;;;;5014940;28;20041;-71
2022/03/03 03:51:20;;;;;;;8.73;6.97;;;7.90;99.90;;;;;;5014869;28;20049;-71
2022/03/03 03:53:45;;;;;;;9.48;7.28;;;7.70;99.90;;;;;;5015197;28;20129;-71
2022/03/03 03:56:11;;;;;;;10.32;7.47;;;7.80;99.90;;;;;;5015222;28;20124;-71
2022/03/03 03:58:37;;;;;;;10.88;7.03;;;7.90;99.90;;;;;;5015155;28;20065;-71
2022/03/03 04:01:03;;;;;;;9.80;7.43;;;7.90;99.90;;;;;;5013994;28;20049;-71
2022/03/03 04:03:29;;;;;;;10.13;7.95;;;7.90;99.10;;;;;;5014822;28;20084;-71
2022/03/03 04:05:55;;;;;;;9.82;7.65;;;7.80;99.90;;;;;;5015097;28;20047;-71
2022/03/03 04:08:21;;;;;;;12.10;7.78;;;7.90;99.90;;;;;;5014979;28;20527;-71
2022/03/03 04:10:47;;;;;;;10.60;7.50;;;7.90;99.90;;;;;;4997185;28;20050;-71
2022/03/03 04:13:15;;;;;;;9.95;7.40;;;7.90;99.90;;;;;;5014567;28;20413;-71
2022/03/03 04:15:41;;;;;;;11.55;7.80;;;7.90;99.90;;;;;;5014515;28;20042;-71
2022/03/03 04:18:07;;;;;;;8.32;6.93;;;7.90;99.90;;;;;;5014563;28;20385;-71
2022/03/03 04:20:33;;;;;;;11.52;7.70;;;7.90;99.90;;;;;;5014546;28;20042;-71
2022/03/03 04:22:59;;;;;;;8.48;6.32;;;7.90;99.90;;;;;;5014776;28;20041;-71
2022/03/03 04:25:25;;;;;;;9.88;7.40;;;7.80;99.90;;;;;;5015643;28;20039;-71
2022/03/03 04:27:51;;;;;;;7.80;5.80;;;7.80;99.90;;;;;;5015062;28;20489;-71
2022/03/03 04:30:16;;;;;;;7.18;6.10;;;7.60;99.90;;;;;;5014545;28;20042;-71
2022/03/03 04:32:42;;;;;;;7.57;5.30;;;7.50;99.90;;;;;;5014525;28;20034;-71
2022/03/03 04:35:09;;;;;;;8.77;6.22;;;7.50;99.90;;;;;;5015343;28;20041;-71
2022/03/03 04:37:36;;;;;;;7.43;5.78;;;7.40;99.90;;;;;;5014559;28;20046;-71
2022/03/03 04:40:03;;;;;;;7.68;5.70;;;7.40;99.90;;;;;;5014519;28;20050;-71
2022/03/03 04:42:29;;;;;;;7.45;6.32;;;7.40;99.90;;;;;;5014757;28;20038;-71
2022/03/03 04:44:55;;;;;;;7.13;5.38;;;7.40;99.90;;;;;;5014269;28;20577;-72
2022/03/03 04:47:21;;;;;;;8.07;5.18;;;7.30;99.90;;;;;;5016066;28;20052;-71
2022/03/03 04:49:47;;;;;;;8.82;6.05;;;7.50;99.90;;;;;;5018820;28;20048;-72
2022/03/03 04:52:13;;;;;;;7.25;5.10;;;7.50;99.90;;;;;;5018159;28;20366;-71
2022/03/03 04:54:39;;;;;;;5.72;4.60;;;7.40;99.90;;;;;;5018152;28;20045;-72
2022/03/03 04:57:05;;;;;;;5.85;5.13;;;7.40;99.90;;;;;;5018284;28;20034;-72
2022/03/03 04:59:31;;;;;;;6.65;5.53;;;7.40;99.90;;;;;;5018150;28;20366;-72
2022/03/03 05:01:56;;;;;;;6.75;4.82;;;7.40;99.90;;;;;;5017442;28;20054;-72
2022/03/03 05:04:22;;;;;;;6.28;4.85;;;7.30;99.90;;;;;;5017995;28;20036;-72
2022/03/03 05:06:49;;;;;;;5.20;4.70;;;7.40;99.90;;;;;;5017858;28;20107;-71
2022/03/03 05:09:15;;;;;;;5.60;4.30;;;7.40;99.90;;;;;;5016667;28;20471;-71
2022/03/03 05:11:42;;;;;;;4.40;3.92;;;7.50;99.90;;;;;;5017686;28;20045;-72
2022/03/03 05:14:08;;;;;;;4.30;3.85;;;7.50;99.90;;;;;;5017215;28;20029;-72
2022/03/03 05:16:34;;;;;;;4.53;3.90;;;7.50;99.90;;;;;;5017268;28;20048;-72
2022/03/03 05:19:00;;;;;;;5.30;3.38;;;7.60;99.90;;;;;;5017897;28;20034;-71
2022/03/03 05:21:26;;;;;;;4.32;3.90;;;7.60;99.90;;;;;;5017423;28;20424;-71
2022/03/03 05:23:53;;;;;;;3.58;3.20;;;7.60;99.90;;;;;;5017650;28;20143;-71
2022/03/03 05:26:19;;;;;;;3.40;3.05;;;7.50;99.90;;;;;;5017163;28;20042;-71
2022/03/03 05:28:45;;;;;;;3.90;3.58;;;7.50;99.90;;;;;;5017189;28;20505;-71
2022/03/03 05:31:10;;;;;;;4.32;3.92;;;7.40;99.90;;;;;;5017393;28;20044;-71
2022/03/03 05:33:37;;;;;;;4.43;3.53;;;7.40;99.90;;;;;;5017347;28;20381;-71
2022/03/03 05:36:06;;;;;;;5.80;3.33;;;7.40;99.90;;;;;;5017655;28;20119;-71
2022/03/03 05:38:33;;;;;;;4.10;3.22;;;7.80;99.90;;;;;;5017292;28;20048;-71
2022/03/03 05:41:00;;;;;;;4.75;3.30;;;7.40;99.90;;;;;;5017845;28;20056;-71
2022/03/03 05:43:26;;;;;;;4.03;3.63;;;7.50;99.90;;;;;;5016974;28;20072;-71
2022/03/03 05:45:53;;;;;;;3.90;3.13;;;7.50;99.90;;;;;;5017189;28;20049;-71
2022/03/03 05:48:20;;;;;;;3.92;3.53;;;7.60;99.90;;;;;;5016901;28;20057;-71
2022/03/03 05:50:47;;;;;;;4.47;3.35;;;7.60;99.90;;;;;;5017269;28;20099;-71
2022/03/03 05:53:13;;;;;;;3.92;3.40;;;7.60;99.90;;;;;;5016960;28;20061;-71
2022/03/03 05:55:44;;;;;;;3.70;3.33;;;7.70;99.90;;;;;;5017017;28;20485;-72
2022/03/03 05:58:21;;;;;;;4.35;3.28;;;7.60;99.90;;;;;;5016178;28;20147;-72
2022/03/03 06:00:49;;;;;;;3.67;3.20;;;7.50;99.90;;;;;;5016596;28;20141;-72
2022/03/03 06:03:16;;;;;;;4.55;3.72;;;7.40;99.90;;;;;;5016981;28;20097;-72
2022/03/03 06:05:50;;;;;;;4.47;3.35;;;7.40;99.90;;;;;;5016991;28;20069;-72
2022/03/03 06:08:20;;;;;;;4.85;3.70;;;7.30;99.90;;;;;;5017181;28;20124;-72
2022/03/03 06:10:51;;;;;;;5.32;4.07;;;7.10;99.90;;;;;;5017327;28;20041;-72
2022/03/03 06:13:21;;;;;;;;;;;7.00;99.90;;;;;;5017449;28;20034;-71
2022/03/03 06:15:48;;;;;;;5.45;3.95;;;6.90;99.90;;;;;;5016468;28;19935;-71
2022/03/03 06:18:14;;;;;;;3.80;3.40;;;6.90;99.90;;;;;;5016928;28;20046;-71
2022/03/03 06:20:43;;;;;;;4.60;3.80;;;6.90;99.90;;;;;;5017118;28;20060;-71
2022/03/03 06:23:09;;;;;;;4.85;3.55;;;7.00;99.90;;;;;;4999460;28;20104;-71
2022/03/03 06:25:37;;;;;;;4.50;4.10;;;7.10;99.90;;;;;;5016460;28;20432;-71
2022/03/03 06:28:03;;;;;;;5.63;4.40;;;7.10;99.90;;;;;;5016696;28;20042;-71
2022/03/03 06:30:31;;;;;;;8.23;3.83;;;7.00;99.90;;;;;;5016371;28;20115;-71
2022/03/03 06:32:57;;;;;;;3.92;3.53;;;7.10;99.90;;;;;;5016505;28;20034;-71
2022/03/03 06:35:23;;;;;;;5.10;3.50;;;7.10;99.90;;;;;;5016297;28;20049;-71
2022/03/03 06:37:49;;;;;;;4.53;3.42;;;7.10;99.90;;;;;;5016584;28;20037;-71
2022/03/03 06:40:15;;;;;;;4.53;3.40;;;7.10;99.90;;;;;;5015893;28;20496;-71
2022/03/03 06:42:41;;;;;;;4.95;3.58;;;7.10;99.90;;;;;;5016174;28;20042;-71
2022/03/03 06:45:07;;;;;;;3.88;3.00;;;7.10;99.90;;;;;;5016561;28;20116;-71
2022/03/03 06:47:34;;;;;;;4.55;3.35;;;6.90;99.90;;;;;;5015987;28;20040;-71
2022/03/03 06:50:00;;;;;;;4.00;2.85;;;7.00;99.90;;;;;;5016465;28;20088;-71
2022/03/03 06:52:26;;;;;;;3.08;2.55;;;7.00;99.90;;;;;;5016001;28;20042;-71
2022/03/03 06:54:53;;;;;;;3.10;2.63;;;7.10;99.90;;;;;;5015912;28;20563;-71
2022/03/03 06:57:23;;;;;;;5.32;2.83;;;7.20;99.90;;;;;;5016164;28;20038;-72
2022/03/03 06:59:52;;;;;;;3.17;2.30;;;7.20;99.90;;;;;;5015864;28;20046;-71
2022/03/03 07:02:20;;;;;;;2.55;2.35;;;7.30;99.90;;;;;;5034612;28;20443;-70
2022/03/03 07:04:51;;;;;;;10.27;3.10;;;7.50;99.90;;;;;;5035491;28;20034;-71
2022/03/03 07:07:17;;;;;;;8.68;2.95;;;7.60;99.90;;;;;;5035697;28;20052;-71
2022/03/03 07:09:44;;;;;;;2.53;2.10;;;7.70;99.90;;;;;;5035549;28;20042;-71
2022/03/03 07:12:12;;;;;;;6.55;2.53;;;7.70;99.70;;;;;;5035761;28;20196;-71
2022/03/03 07:14:38;;;;;;;2.75;2.03;;;7.80;97.60;;;;;;5035409;28;20038;-71
2022/03/03 07:17:09;;;;;;;3.25;2.33;;;7.80;92.80;;;;;;5035433;28;20040;-71
2022/03/03 07:19:43;;;;;;;2.38;2.17;;;7.80;94.70;;;;;;5035377;28;20045;-71
2022/03/03 07:22:23;;;;;;;2.13;1.90;;;7.70;78.30;;;;;;5032413;28;20057;-71
2022/03/03 07:24:59;;;;;;;2.85;2.05;;;8.00;71.50;;;;;;5034850;28;20087;-71
2022/03/03 07:27:25;;;;;;;8.52;2.30;;;8.10;70.20;;;;;;5034266;28;20385;-71
2022/03/03 07:30:05;;;;;;;5.13;2.67;;;8.30;48.40;;;;;;5034564;28;20041;-71
2022/03/03 07:32:34;;;;;;;4.00;2.05;;;8.20;29.60;;;;;;5032268;28;20120;-71
2022/03/03 07:35:05;;;;;;;4.38;2.10;;;8.40;39.60;;;;;;5034300;28;20041;-71
2022/03/03 07:37:36;;;;;;;9.50;2.45;;;8.30;24.50;;;;;;5032086;28;20033;-71
2022/03/03 07:40:08;;;;;;;8.23;2.78;;;10.10;30.70;;;;;;5016635;28;20369;-71
2022/03/03 07:42:35;;;;;;;5.38;2.75;;;8.30;35.00;;;;;;5034027;28;20033;-71
2022/03/03 07:45:05;;;;;;;5.63;2.05;;;8.30;38.90;;;;;;5033800;28;20033;-71
2022/03/03 07:47:31;;;;;;;13.20;2.28;;;8.40;39.50;;;;;;5034037;28;20124;-71
2022/03/03 07:49:57;;;;;;;13.40;2.47;;;8.40;34.90;;;;;;5034475;28;20041;-71
2022/03/03 07:52:24;;;;;;;9.82;2.45;;;8.40;46.40;;;;;;5034981;28;20043;-71
2022/03/03 07:54:50;;;;;;;12.23;2.90;;;8.40;36.20;;;;;;5034949;28;20041;-72
2022/03/03 07:57:19;;;;;;;10.70;2.65;;;8.30;33.90;;;;;;5034920;28;20088;-71
2022/03/03 07:59:58;;;;;;;6.80;2.63;;;8.60;34.50;;;;;;5034462;28;20048;-70
2022/03/03 08:02:24;;;;;;;14.82;2.80;;;8.50;36.60;;;;;;5033871;28;20140;-71
2022/03/03 08:04:52;;;;;;;12.18;2.75;;;8.50;43.80;;;;;;5034400;28;20033;-71
2022/03/03 08:07:19;;;;;;;6.45;2.80;;;8.60;42.80;;;;;;5034209;28;20051;-71
2022/03/03 08:09:48;;;;;;;9.40;2.63;;;8.60;41.40;;;;;;5035106;28;20038;-71
2022/03/03 08:12:15;;;;;;;4.07;2.22;;;8.70;38.00;;;;;;5034116;28;20125;-71
2022/03/03 08:14:42;;;;;;;3.00;1.98;;;8.80;26.30;;;;;;5034290;28;20041;-71
2022/03/03 08:17:12;;;;;;;3.58;1.90;;;8.90;28.20;;;;;;5034149;28;20034;-71
2022/03/03 08:19:38;;;;;;;2.72;2.13;;;9.00;30.30;;;;;;5034334;28;20038;-71
2022/03/03 08:22:05;;;;;;;2.00;1.80;;;9.10;21.20;;;;;;5035010;28;20053;-71
2022/03/03 08:24:35;;;;;;;5.28;2.40;;;9.20;19.70;;;;;;5038414;28;20069;-71
2022/03/03 08:27:03;;;;;;;2.90;2.17;;;9.20;11.40;;;;;;5038627;28;20136;-71
2022/03/03 08:29:29;;;;;;;3.38;1.95;;;9.30;5.50;;;;;;5037971;28;20030;-71
2022/03/03 08:31:57;;;;;;;3.90;2.13;;;9.30;12.40;;;;;;5038101;28;20072;-71
2022/03/03 08:35:01;;;;;;;2.00;1.80;;;9.50;1.10;;;;;;5038358;28;20037;-71
2022/03/03 08:37:56;;;;;;;4.65;2.40;;;9.80;1.00;;;;;;5038256;28;20038;-71
2022/03/03 08:40:24;;;;;;;3.05;2.05;;;9.80;1.00;;;;;;5026953;28;20132;-71
2022/03/03 08:42:56;;;;;;;2.65;2.10;;;10.10;1.00;;;;;;5038180;28;20034;-71
2022/03/03 08:45:23;;;;;;;2.33;2.08;;;10.40;1.00;;;;;;5038083;28;20488;-71
2022/03/03 08:47:57;;;;;;;2.85;2.45;;;10.60;1.00;;;;;;5037894;28;20044;-71
2022/03/03 08:50:27;;;;;;;3.42;2.08;;;10.80;1.00;;;;;;5038624;28;20033;-71
2022/03/03 08:52:54;;;;;;;3.17;2.20;;;11.10;1.00;;;;;;5038223;28;20068;-71
2022/03/03 08:55:20;;;;;;;2.25;1.67;;;11.30;1.00;;;;;;5032097;28;20524;-71
2022/03/03 08:57:46;;;;;;;2.80;1.63;;;11.10;1.00;;;;;;5032165;28;20107;-71
2022/03/03 09:00:12;;;;;;;2.75;2.03;;;11.20;1.00;;;;;;5025293;28;20053;-71
2022/03/03 09:02:40;;;;;;;5.68;1.90;;;11.20;1.00;;;;;;5030493;28;20110;-71
2022/03/03 09:05:07;;;;;;;2.60;1.80;;;11.10;1.00;;;;;;5020301;28;20400;-71
2022/03/03 09:07:33;;;;;;;2.90;1.65;;;11.20;1.00;;;;;;5037904;28;20045;-71
2022/03/03 09:09:59;;;;;;;3.00;1.65;;;11.20;1.00;;;;;;5033144;28;20030;-73
2022/03/03 09:12:25;;;;;;;1.67;1.48;;;11.40;1.00;;;;;;5032480;28;20128;-71
2022/03/03 09:14:51;;;;;;;2.50;1.40;;;11.30;1.00;;;;;;5037162;28;20033;-71
2022/03/03 09:17:17;;;;;;;3.05;1.65;;;11.30;1.00;;;;;;5035084;28;20078;-71
2022/03/03 09:19:43;;;;;;;4.20;2.08;;;11.40;1.00;;;;;;5026126;28;20030;-71
2022/03/03 09:22:09;;;;;;;3.75;1.83;;;11.50;1.00;;;;;;5037167;28;20198;-71
2022/03/03 09:24:35;;;;;;;6.20;2.03;;;11.50;1.00;;;;;;5031491;28;20037;-71
2022/03/03 09:27:01;;;;;;;2.28;1.80;;;11.50;1.00;;;;;;5032426;28;20095;-71
2022/03/03 09:29:28;;;;;;;5.72;1.70;;;11.60;1.00;;;;;;5029565;28;20033;-71
2022/03/03 09:31:54;;;;;;;5.75;1.65;;;11.60;1.00;;;;;;5019970;28;20046;-71
2022/03/03 09:34:20;;;;;;;2.38;1.52;;;11.60;1.00;;;;;;5028030;28;20034;-71
2022/03/03 09:36:45;;;;;;;3.50;1.70;;;11.50;1.00;;;;;;5029305;28;20046;-71
2022/03/03 09:39:11;;;;;;;2.35;1.63;;;11.40;1.00;;;;;;5033063;28;20041;-71
2022/03/03 09:41:37;;;;;;;2.85;2.00;;;11.50;1.00;;;;;;5026792;28;20124;-71
2022/03/03 09:44:03;;;;;;;3.83;2.03;;;11.40;1.00;;;;;;5036786;28;20033;-71
2022/03/03 09:46:29;;;;;;;2.20;1.75;;;11.30;1.00;;;;;;5035334;28;20052;-71
2022/03/03 09:48:55;;;;;;;2.30;1.83;;;11.30;1.00;;;;;;5036566;28;20508;-71
2022/03/03 09:51:21;;;;;;;4.13;1.95;;;11.30;1.00;;;;;;5037531;28;20069;-71
2022/03/03 09:53:49;;;;;;;2.70;1.70;;;11.30;1.00;;;;;;5036038;28;20041;-71
2022/03/03 09:56:16;;;;;;;2.28;1.80;;;11.30;1.00;;;;;;5027898;28;20046;-71
2022/03/03 09:58:42;;;;;;;2.47;1.83;;;11.30;1.00;;;;;;5021661;28;20488;-71
2022/03/03 10:01:08;;;;;;;4.40;2.08;;;11.30;1.00;;;;;;5031529;28;20068;-71
2022/03/03 10:03:35;;;;;;;2.40;1.85;;;11.30;1.00;;;;;;5032393;28;20111;-71
2022/03/03 10:06:02;;;;;;;2.85;2.10;;;11.40;1.00;;;;;;5027100;28;20069;-71
2022/03/03 10:08:29;;;;;;;4.22;1.70;;;11.40;1.00;;;;;;5027882;28;20037;-71
2022/03/03 10:11:00;;;;;;;4.32;2.08;;;11.50;1.00;;;;;;5017274;28;20206;-71
2022/03/03 10:13:27;;;;;;;3.38;1.83;;;11.50;1.00;;;;;;5022266;28;20065;-72
2022/03/03 10:15:59;;;;;;;4.50;2.08;;;11.20;1.00;;;;;;5025675;28;20147;-71
2022/03/03 10:18:26;;;;;;;2.28;1.70;;;11.60;1.00;;;;;;5025719;28;20049;-71
2022/03/03 10:20:56;;;;;;;2.95;2.13;;;11.90;1.00;;;;;;5027335;28;20539;-72
2022/03/03 10:23:38;;;;;;;5.03;1.92;;;11.60;1.00;;;;;;5019605;28;20125;-72
2022/03/03 10:26:07;;;;;;;4.97;2.10;;;11.80;1.00;;;;;;5018601;28;20038;-72
2022/03/03 10:28:37;;;;;;;1.75;1.60;;;11.90;1.00;;;;;;5022386;28;20037;-72
2022/03/03 10:31:13;;;;;;;2.50;2.00;;;11.90;1.00;;;;;;5020333;28;20042;-72
2022/03/03 10:33:56;;;;;;;2.60;1.90;;;12.00;1.00;;;;;;5019237;28;20033;-72
2022/03/03 10:36:24;;;;;;;2.80;2.08;;;12.10;1.00;;;;;;5029515;28;20053;-71
2022/03/03 10:39:03;;;;;;;3.08;1.83;;;12.20;1.00;;;;;;5023282;28;20070;-73
2022/03/03 10:41:33;;;;;;;2.75;1.92;;;12.10;1.00;;;;;;5030531;28;20416;-74
2022/03/03 10:44:05;;;;;;;2.55;1.92;;;11.90;1.00;;;;;;5029401;28;20117;-70
2022/03/03 10:46:32;;;;;;;4.78;3.70;;;11.90;1.00;;;;;;5028675;28;20582;-70
2022/03/03 10:48:57;;;;;;;2.10;1.90;;;12.30;1.00;;;;;;5033581;28;20037;-70
2022/03/03 10:51:26;;;;;;;2.85;2.05;;;12.10;1.00;;;;;;5024954;28;20049;-72
2022/03/03 10:53:57;;;;;;;2.78;2.30;;;12.20;1.00;;;;;;5028067;28;20045;-70
2022/03/03 10:56:22;;;;;;;2.15;1.60;;;12.10;1.00;;;;;;5016837;28;20500;-71
2022/03/03 10:58:52;;;;;;;2.05;1.85;;;12.10;1.00;;;;;;5031181;28;20034;-70
2022/03/03 11:01:33;;;;;;;4.33;1.80;;;12.10;1.00;;;;;;5020035;28;20145;-73
2022/03/03 11:04:00;;;;;;;3.17;2.33;;;12.20;1.00;;;;;;5021948;28;20044;-70
2022/03/03 11:06:33;;;;;;;2.72;1.70;;;12.20;1.00;;;;;;5015057;28;20041;-70
2022/03/03 11:09:00;;;;;;;2.05;1.70;;;12.70;1.00;;;;;;5016197;28;20042;-70
2022/03/03 11:11:26;;;;;;;3.63;2.60;;;13.00;1.00;;;;;;5016534;28;20057;-70
2022/03/03 11:13:53;;;;;;;3.00;1.92;;;13.20;1.00;;;;;;5015711;28;20040;-70
2022/03/03 11:16:25;;;;;;;15.77;12.15;;;13.30;1.00;;;;;;5014680;28;20104;-70
2022/03/03 11:18:51;;;;;;;19.45;14.95;;;13.30;1.00;;;;;;5016378;28;20033;-70
2022/03/03 11:21:18;;;;;;;3.90;2.22;;;13.40;1.00;;;;;;5015776;28;20049;-70
2022/03/03 11:23:46;;;;;;;11.65;7.65;;;13.40;1.00;;;;;;5016239;28;20123;-70
2022/03/03 11:26:42;;;;;;;11.85;7.78;;;13.30;1.00;;;;;;5015581;28;20556;-70
2022/03/03 11:29:16;;;;;;;5.70;3.95;;;13.50;1.00;;;;;;5014055;28;20044;-70
2022/03/03 11:31:44;;;;;;;7.53;5.63;;;13.60;1.00;;;;;;5016132;28;20061;-70
2022/03/03 11:34:32;;;;;;;3.80;3.50;;;13.40;1.00;;;;;;5015285;28;20041;-70
2022/03/03 11:37:07;;;;;;;3.95;3.58;;;13.30;1.00;;;;;;5014903;28;20036;-70
2022/03/03 11:39:41;;;;;;;4.18;1.98;;;13.40;1.00;;;;;;5015816;28;20117;-70
2022/03/03 11:42:33;;;;;;;2.30;2.10;;;13.40;1.00;;;;;;5015618;28;20038;-70
2022/03/03 11:45:13;;;;;;;3.90;1.73;;;13.00;1.00;;;;;;5014845;28;20420;-70
2022/03/03 11:47:47;;;;;;;5.38;3.25;;;13.20;1.00;;;;;;5015678;28;20061;-70
2022/03/03 11:50:23;;;;;;;2.97;1.98;;;13.20;1.00;;;;;;5014988;28;20050;-70
2022/03/03 11:52:57;;;;;;;3.15;1.63;;;13.20;1.00;;;;;;5015172;28;20131;-70
2022/03/03 11:55:26;;;;;;;2.53;1.60;;;13.20;1.00;;;;;;5015015;28;20034;-70
2022/03/03 11:58:03;;;;;;;3.50;1.77;;;13.10;1.00;;;;;;5015292;28;20147;-70
2022/03/03 12:00:30;;;;;;;2.92;1.92;;;13.20;1.00;;;;;;5014785;28;20046;-70
2022/03/03 12:03:00;;;;;;;3.72;2.05;;;13.00;1.00;;;;;;5014960;28;20038;-70
2022/03/03 12:05:29;;;;;;;3.45;1.50;;;13.10;1.00;;;;;;5015028;28;20045;-70
2022/03/03 12:07:59;;;;;;;5.10;4.00;;;13.30;1.00;;;;;;5014993;28;20489;-70
2022/03/03 12:10:25;;;;;;;3.20;2.90;;;13.40;1.00;;;;;;5014448;28;20111;-70
2022/03/03 12:12:51;;;;;;;5.07;3.22;;;13.30;1.00;;;;;;5033174;28;20029;-71
2022/03/03 12:15:17;;;;;;;4.50;3.15;;;13.30;1.00;;;;;;5032661;28;20046;-71
2022/03/03 12:17:56;;;;;;;2.80;1.85;;;13.40;1.00;;;;;;5032819;28;20121;-71
2022/03/03 12:20:32;;;;;;;3.88;3.03;;;13.50;1.00;;;;;;5031316;28;20045;-71
2022/03/03 12:23:18;;;;;;;2.78;2.10;;;13.60;1.00;;;;;;5030689;28;20082;-71
2022/03/03 12:25:50;;;;;;;2.08;1.80;;;13.50;1.00;;;;;;5032796;28;20033;-70
2022/03/03 12:28:23;;;;;;;4.10;1.83;;;13.60;1.00;;;;;;5032601;28;20114;-70
2022/03/03 12:30:51;;;;;;;4.90;1.65;;;13.60;1.00;;;;;;5032322;28;20524;-71
2022/03/03 12:33:28;;;;;;;2.67;1.63;;;13.50;1.00;;;;;;5032453;28;20034;-71
2022/03/03 12:36:06;;;;;;;13.48;9.23;;;13.50;1.00;;;;;;5032975;28;20052;-70
2022/03/03 12:38:36;;;;;;;8.48;4.88;;;13.40;1.00;;;;;;5032648;28;20041;-71
2022/03/03 12:41:02;;;;;;;17.23;10.07;;;13.30;1.00;;;;;;5030001;28;20083;-71
2022/03/03 12:43:39;;;;;;;13.98;9.02;;;13.40;1.00;;;;;;5032613;28;20122;-71
2022/03/03 12:46:05;;;;;;;8.02;5.55;;;13.40;1.00;;;;;;5032128;28;20033;-71
2022/03/03 12:48:33;;;;;;;17.25;9.65;;;12.60;1.00;;;;;;5032153;28;20124;-70
2022/03/03 12:51:09;;;;;;;18.77;9.88;;;13.30;1.00;;;;;;5032489;28;20141;-71
2022/03/03 12:53:37;;;;;;;10.65;6.40;;;13.30;1.00;;;;;;5032388;28;20130;-70
2022/03/03 12:56:04;;;;;;;8.10;3.88;;;13.30;1.00;;;;;;5030077;28;20048;-71
2022/03/03 12:58:35;;;;;;;7.57;2.90;;;13.40;1.00;;;;;;5032243;28;20562;-71
2022/03/03 13:01:01;;;;;;;3.50;2.40;;;13.60;1.00;;;;;;5032116;28;20061;-71
2022/03/03 13:03:37;;;;;;;3.08;2.10;;;13.70;1.00;;;;;;5032761;28;20037;-70
2022/03/03 13:06:03;;;;;;;4.13;2.22;;;13.60;1.00;;;;;;5030061;28;20060;-70